CheckWX is a tool to help pilots better visualize weather data.  It is not intended as a substitute for an official pre-flight weather briefing.

20:36:16 UTC

LZTT METAR
Poprad-Tatry Airport
Poprad, Slovakia (Slovak Republic)
Current

36 mins ago

LZTT 162000Z VRB02KT CAVOK 13/08 Q1013
Observed
Jul-16 @ 20:00 UTC
Wind
  • Variable at 2 KTS
Visibility
10,000+ meters
Flight Rules
VFR
Cloud Levels
  • Clear skies
Temperature
13°C / 55°F
Dewpoint
C / 46°F
Humidity
72%
Altimeter
29.91" Hg
Pressure
1012.92 hPa
Previous

1 hour ago

LZTT 161930Z 07009KT 9999 FEW053 14/09 Q1013
Observed
Jul-16 @ 19:30 UTC
Wind
  • 070° at 9 KTS
Visibility
10,000+ meters
Flight Rules
VFR
Cloud Levels
  • Few at 5,300' AGL
Temperature
14°C / 57°F
Dewpoint
C / 48°F
Humidity
72%
Altimeter
29.91" Hg
Pressure
1012.92 hPa
Previous

2 hours ago

LZTT 161900Z 10008KT 9999 FEW053 16/09 Q1012
Observed
Jul-16 @ 19:00 UTC
Wind
  • 100° at 8 KTS
Visibility
10,000+ meters
Flight Rules
VFR
Cloud Levels
  • Few at 5,300' AGL
Temperature
16°C / 61°F
Dewpoint
C / 48°F
Humidity
63%
Altimeter
29.88" Hg
Pressure
1011.92 hPa